Time;durP1;ratioP1;P1;durP2;ratioP2;P2;SDS_P1;SDS_P2;PMS_P1;PMS_P2;Temp;Humidity;BMP_temperature;BMP_pressure;BME280_temperature;BME280_humidity;BME280_pressure;Samples;Min_cycle;Max_cycle;Signal;HPM_P1;HPM_P2
2022/09/25 00:00:42;;;;;;;3.72;1.30;;;12.00;99.90;;;;;;5045791;28;20061;-34
2022/09/25 00:03:10;;;;;;;3.78;1.38;;;12.00;99.90;;;;;;5044556;28;20025;-34
2022/09/25 00:05:41;;;;;;;5.53;1.40;;;12.00;99.90;;;;;;5045571;28;20026;-35
2022/09/25 00:08:08;;;;;;;5.97;1.42;;;12.00;99.90;;;;;;5044960;28;20114;-35
2022/09/25 00:10:38;;;;;;;4.05;1.13;;;12.00;99.90;;;;;;5045286;28;20327;-34
2022/09/25 00:13:03;;;;;;;5.38;1.20;;;11.90;99.90;;;;;;5045683;28;20025;-35
2022/09/25 00:15:29;;;;;;;3.90;1.38;;;11.90;99.90;;;;;;5045263;28;20032;-35
2022/09/25 00:17:55;;;;;;;3.10;1.38;;;11.90;99.90;;;;;;5045267;28;20029;-35
2022/09/25 00:20:22;;;;;;;3.22;1.13;;;11.90;99.90;;;;;;5044918;28;20028;-35
2022/09/25 00:22:48;;;;;;;4.18;1.30;;;11.80;99.90;;;;;;5045635;28;20108;-35
2022/09/25 00:25:15;;;;;;;4.03;1.50;;;11.80;99.90;;;;;;5044514;28;20178;-35
2022/09/25 00:27:42;;;;;;;4.13;1.60;;;11.70;99.90;;;;;;5045672;28;20028;-35
2022/09/25 00:30:10;;;;;;;6.28;1.27;;;11.60;99.90;;;;;;5044654;28;20115;-43
2022/09/25 00:32:36;;;;;;;6.63;1.35;;;11.60;99.90;;;;;;5043924;28;20025;-34
2022/09/25 00:35:02;;;;;;;3.28;1.30;;;11.50;99.90;;;;;;5045525;28;20060;-35
2022/09/25 00:37:28;;;;;;;4.28;1.40;;;11.50;99.90;;;;;;5044656;28;20076;-35
2022/09/25 00:39:54;;;;;;;4.80;1.45;;;11.50;99.90;;;;;;5044529;28;20033;-35
2022/09/25 00:42:22;;;;;;;4.57;1.40;;;11.50;99.90;;;;;;5044687;28;20477;-35
2022/09/25 00:44:55;;;;;;;3.60;1.50;;;11.50;99.90;;;;;;5045091;28;20094;-35
2022/09/25 00:47:36;;;;;;;3.15;1.40;;;11.40;99.90;;;;;;5044858;28;20033;-34
2022/09/25 00:50:11;;;;;;;2.40;1.17;;;11.40;99.90;;;;;;5044541;28;20025;-35
2022/09/25 00:52:37;;;;;;;3.67;1.48;;;11.40;99.90;;;;;;5044534;28;20139;-35
2022/09/25 00:55:06;;;;;;;3.92;1.38;;;11.40;99.90;;;;;;5045189;28;20096;-34
2022/09/25 00:57:35;;;;;;;4.13;1.30;;;11.30;99.90;;;;;;5045408;28;20032;-35
2022/09/25 01:00:08;;;;;;;2.97;1.23;;;11.30;99.90;;;;;;5044023;28;20052;-34
2022/09/25 01:02:38;;;;;;;4.10;1.38;;;11.30;99.90;;;;;;5045151;28;20025;-34
2022/09/25 01:05:07;;;;;;;4.30;1.50;;;11.30;99.90;;;;;;5044917;28;20447;-34
2022/09/25 01:07:37;;;;;;;3.20;1.20;;;11.30;99.90;;;;;;5044256;28;20512;-34
2022/09/25 01:10:05;;;;;;;6.10;1.60;;;11.20;99.90;;;;;;5044435;28;20052;-35
2022/09/25 01:12:32;;;;;;;4.00;1.30;;;11.20;99.90;;;;;;5044560;28;20489;-35
2022/09/25 01:14:58;;;;;;;2.97;1.58;;;11.20;99.90;;;;;;5043998;28;20032;-34
2022/09/25 01:17:34;;;;;;;3.35;1.33;;;11.20;99.90;;;;;;5044321;28;20033;-34
2022/09/25 01:20:23;;;;;;;2.92;1.50;;;11.20;99.90;;;;;;5044531;28;20033;-34
2022/09/25 01:23:14;;;;;;;4.03;1.60;;;11.10;99.90;;;;;;5044321;28;20041;-34
2022/09/25 01:25:56;;;;;;;1.98;1.20;;;11.10;99.90;;;;;;5044470;28;20452;-39
2022/09/25 01:28:43;;;;;;;5.00;1.45;;;11.00;99.90;;;;;;5043480;28;20033;-34
2022/09/25 01:31:18;;;;;;;5.53;1.70;;;11.00;99.90;;;;;;5043640;28;20492;-35
2022/09/25 01:33:54;;;;;;;2.92;1.50;;;11.00;99.90;;;;;;5044681;28;20119;-35
2022/09/25 01:36:35;;;;;;;3.50;1.50;;;11.00;99.90;;;;;;5043288;28;20029;-34
2022/09/25 01:39:19;;;;;;;5.45;1.80;;;10.90;99.90;;;;;;5044797;28;20025;-35
2022/09/25 01:41:53;;;;;;;3.17;1.70;;;10.90;99.90;;;;;;5043834;28;20455;-34
2022/09/25 01:44:29;;;;;;;4.97;1.77;;;10.80;99.90;;;;;;5044151;28;20070;-34
2022/09/25 01:47:03;;;;;;;3.85;1.50;;;10.80;99.90;;;;;;5044513;28;20025;-34
2022/09/25 01:49:34;;;;;;;3.28;1.60;;;10.80;99.90;;;;;;5043228;28;20389;-34
2022/09/25 01:52:09;;;;;;;6.13;1.60;;;10.80;99.90;;;;;;5043613;28;20032;-34
2022/09/25 01:54:50;;;;;;;3.33;1.60;;;10.80;99.90;;;;;;5044978;28;20396;-34
2022/09/25 01:57:26;;;;;;;2.75;1.60;;;10.80;99.90;;;;;;5042570;28;20025;-34
2022/09/25 02:00:05;;;;;;;2.45;1.75;;;10.80;99.90;;;;;;5041016;28;20320;-34
2022/09/25 02:02:36;;;;;;;1.60;1.50;;;10.70;99.90;;;;;;5046376;28;20491;-34
2022/09/25 02:05:19;;;;;;;3.08;1.60;;;10.70;99.90;;;;;;5048460;28;20326;-34
2022/09/25 02:07:49;;;;;;;2.92;1.67;;;10.70;99.90;;;;;;5048261;28;20384;-34
2022/09/25 02:10:22;;;;;;;1.65;1.27;;;10.70;99.90;;;;;;5046695;28;20074;-34
2022/09/25 02:12:52;;;;;;;1.92;1.55;;;10.70;99.90;;;;;;5046964;28;20020;-35
2022/09/25 02:15:27;;;;;;;3.72;1.60;;;10.70;99.90;;;;;;5038514;28;20455;-35
2022/09/25 02:21:36;;;;;;;3.92;1.50;;;10.60;99.90;;;;;;5047572;28;20490;-34
2022/09/25 02:24:23;;;;;;;4.78;1.63;;;10.60;99.90;;;;;;5039478;28;20025;-35
2022/09/25 02:26:49;;;;;;;2.58;1.77;;;10.50;99.90;;;;;;5047645;28;20080;-35
2022/09/25 02:29:16;;;;;;;4.68;1.65;;;10.50;99.90;;;;;;5047352;28;20135;-35
2022/09/25 02:31:51;;;;;;;2.70;1.40;;;10.50;99.90;;;;;;5046919;28;20461;-35
2022/09/25 02:34:17;;;;;;;3.28;1.20;;;10.50;99.90;;;;;;5046790;28;20021;-35
2022/09/25 02:36:43;;;;;;;3.83;1.48;;;10.50;99.90;;;;;;5047691;28;20375;-35
2022/09/25 02:39:12;;;;;;;4.53;1.60;;;10.50;99.90;;;;;;5046836;28;20041;-35
2022/09/25 02:41:51;;;;;;;3.20;1.63;;;10.50;99.90;;;;;;5047749;28;20491;-34
2022/09/25 02:44:49;;;;;;;2.40;1.40;;;10.50;99.90;;;;;;5046653;28;20780;-35
2022/09/25 02:47:38;;;;;;;2.30;1.30;;;10.50;99.90;;;;;;5046656;28;20479;-34
2022/09/25 02:50:12;;;;;;;4.13;1.60;;;10.40;99.90;;;;;;5047851;28;20032;-34
2022/09/25 02:53:06;;;;;;;5.13;1.98;;;10.40;99.90;;;;;;5046608;28;20028;-35
2022/09/25 02:55:47;;;;;;;3.58;1.75;;;10.40;99.90;;;;;;5044317;28;20418;-35
2022/09/25 02:58:25;;;;;;;3.47;1.95;;;10.40;99.90;;;;;;5045713;28;20044;-35
2022/09/25 03:00:53;;;;;;;3.35;1.90;;;10.40;99.90;;;;;;5045776;28;20049;-35
2022/09/25 03:03:22;;;;;;;3.58;1.50;;;10.40;99.90;;;;;;5046000;28;20037;-36
2022/09/25 03:05:50;;;;;;;4.15;1.73;;;10.40;99.90;;;;;;5046890;28;20017;-36
2022/09/25 03:11:02;;;;;;;2.65;1.60;;;10.40;99.90;;;;;;5046786;28;20591;-36
2022/09/25 03:13:33;;;;;;;3.80;1.40;;;10.40;99.90;;;;;;5044842;28;20110;-35
2022/09/25 03:16:34;;;;;;;3.97;2.05;;;10.40;99.90;;;;;;5046956;28;20025;-36
2022/09/25 03:19:00;;;;;;;2.70;1.52;;;10.40;99.90;;;;;;5046407;28;20123;-34
2022/09/25 03:21:26;;;;;;;3.40;1.40;;;10.30;99.90;;;;;;5045037;28;20018;-35
2022/09/25 03:23:52;;;;;;;3.88;1.40;;;10.30;99.90;;;;;;5046461;28;20025;-35
2022/09/25 03:26:17;;;;;;;3.47;1.50;;;10.30;99.90;;;;;;5045878;28;20052;-35
2022/09/25 03:28:43;;;;;;;3.38;1.45;;;10.30;99.90;;;;;;5046006;28;20503;-34
2022/09/25 03:31:10;;;;;;;3.75;1.80;;;10.30;99.90;;;;;;5046000;28;20385;-34
2022/09/25 03:33:41;;;;;;;2.70;1.65;;;10.30;99.90;;;;;;5046265;28;20104;-34
2022/09/25 03:36:15;;;;;;;4.93;1.55;;;10.30;99.90;;;;;;5034737;28;20040;-34
2022/09/25 03:38:42;;;;;;;2.95;1.80;;;10.20;99.90;;;;;;5046028;28;20423;-35
2022/09/25 03:41:09;;;;;;;5.50;1.55;;;10.20;99.90;;;;;;5045109;28;20159;-34
2022/09/25 03:43:39;;;;;;;3.45;1.65;;;10.20;99.90;;;;;;5046036;28;20029;-34
2022/09/25 03:46:08;;;;;;;2.47;1.77;;;10.20;99.90;;;;;;5045812;28;20045;-34
2022/09/25 03:48:37;;;;;;;2.90;1.83;;;10.20;99.90;;;;;;5044973;28;20041;-35
2022/09/25 03:51:04;;;;;;;3.85;2.00;;;10.20;99.90;;;;;;5046632;28;20029;-34
2022/09/25 03:53:32;;;;;;;2.97;1.50;;;10.20;99.90;;;;;;5045768;28;20027;-34
2022/09/25 03:56:01;;;;;;;3.05;1.45;;;10.20;99.90;;;;;;5045756;28;20037;-33
2022/09/25 03:58:28;;;;;;;2.85;2.08;;;10.10;99.90;;;;;;5045833;28;20219;-34
2022/09/25 04:00:56;;;;;;;3.10;1.85;;;10.10;99.90;;;;;;5045300;28;20122;-35
2022/09/25 04:03:22;;;;;;;2.72;1.45;;;10.10;99.90;;;;;;5044309;28;20094;-34
2022/09/25 04:05:48;;;;;;;2.80;1.60;;;10.10;99.90;;;;;;5045785;28;20032;-35
2022/09/25 04:08:13;;;;;;;2.15;1.42;;;10.10;99.90;;;;;;5045341;28;20040;-33
2022/09/25 04:10:39;;;;;;;2.90;1.40;;;10.00;99.90;;;;;;5045022;28;20023;-34
2022/09/25 04:13:11;;;;;;;2.35;1.48;;;10.00;99.90;;;;;;5045633;28;20039;-34
2022/09/25 04:15:41;;;;;;;4.13;1.80;;;10.00;99.90;;;;;;5045296;28;20025;-34
2022/09/25 04:18:08;;;;;;;2.75;1.70;;;10.00;99.90;;;;;;5044736;28;20738;-34
2022/09/25 04:20:34;;;;;;;2.97;1.50;;;9.90;99.90;;;;;;5045617;28;20059;-33
2022/09/25 04:23:00;;;;;;;2.55;1.70;;;9.90;99.90;;;;;;5045387;28;20025;-34
2022/09/25 04:25:26;;;;;;;1.65;1.50;;;9.90;99.90;;;;;;5044221;28;20039;-34
2022/09/25 04:27:55;;;;;;;2.30;1.50;;;9.90;99.90;;;;;;5045159;28;20048;-33
2022/09/25 04:30:22;;;;;;;2.30;1.48;;;9.90;99.90;;;;;;5043627;28;20064;-34
2022/09/25 04:35:33;;;;;;;2.75;1.60;;;9.90;99.90;;;;;;5044910;28;20028;-35
2022/09/25 04:37:59;;;;;;;3.45;1.30;;;9.90;99.90;;;;;;5044696;28;20460;-35
2022/09/25 04:40:25;;;;;;;2.38;1.63;;;9.80;99.90;;;;;;5044642;28;20025;-35
2022/09/25 04:42:58;;;;;;;2.88;1.85;;;9.80;99.90;;;;;;5044778;28;20199;-35
2022/09/25 04:45:25;;;;;;;3.08;2.08;;;9.80;99.90;;;;;;5044185;28;20021;-34
2022/09/25 04:47:55;;;;;;;2.95;1.90;;;9.70;99.90;;;;;;5044139;28;20119;-33
2022/09/25 04:50:21;;;;;;;3.95;2.03;;;9.70;99.90;;;;;;5044370;28;20040;-35
2022/09/25 04:52:50;;;;;;;4.22;2.28;;;9.70;99.90;;;;;;5043938;28;20435;-34
2022/09/25 04:55:16;;;;;;;3.78;2.25;;;9.70;99.90;;;;;;5044264;28;20017;-34
2022/09/25 04:57:42;;;;;;;2.60;1.95;;;9.70;99.90;;;;;;5045294;28;20036;-34
2022/09/25 05:00:08;;;;;;;2.45;2.20;;;9.80;99.90;;;;;;5042897;28;20045;-33
2022/09/25 05:02:35;;;;;;;4.43;2.10;;;9.70;99.90;;;;;;5044930;28;20016;-35
2022/09/25 05:05:00;;;;;;;4.40;2.40;;;9.70;99.90;;;;;;5044761;28;20830;-35
2022/09/25 05:07:26;;;;;;;2.70;2.10;;;9.70;99.90;;;;;;5043272;28;20032;-35
2022/09/25 05:09:51;;;;;;;2.60;2.13;;;9.70;99.90;;;;;;5044725;28;20029;-34
2022/09/25 05:12:17;;;;;;;2.17;1.90;;;9.70;99.90;;;;;;5043684;28;20024;-35
2022/09/25 05:14:42;;;;;;;2.33;2.08;;;9.70;99.90;;;;;;5043683;28;20032;-35
2022/09/25 05:17:10;;;;;;;3.58;2.20;;;9.70;99.90;;;;;;5044065;28;20036;-34
2022/09/25 05:19:35;;;;;;;3.45;2.05;;;9.70;99.90;;;;;;5043615;28;20075;-34
2022/09/25 05:22:01;;;;;;;3.90;2.42;;;9.60;99.90;;;;;;5044225;28;20020;-34
2022/09/25 05:24:27;;;;;;;3.38;2.63;;;9.60;99.90;;;;;;5043584;28;20043;-34
2022/09/25 05:26:52;;;;;;;2.88;2.53;;;9.60;99.90;;;;;;5043371;28;20442;-33
2022/09/25 05:29:18;;;;;;;4.57;2.05;;;9.60;99.90;;;;;;5044276;28;20021;-34
2022/09/25 05:31:47;;;;;;;2.63;2.15;;;9.60;99.90;;;;;;5044649;28;20082;-34
2022/09/25 05:34:13;;;;;;;3.72;2.30;;;9.60;99.90;;;;;;5043140;28;20108;-35
2022/09/25 05:36:38;;;;;;;3.55;2.42;;;9.60;99.90;;;;;;5046076;28;20035;-34
2022/09/25 05:39:04;;;;;;;3.78;2.50;;;9.60;99.90;;;;;;5048875;28;20037;-35
2022/09/25 05:41:32;;;;;;;2.33;2.00;;;9.50;99.90;;;;;;5047822;28;20013;-34
2022/09/25 05:43:58;;;;;;;2.20;1.70;;;9.50;99.90;;;;;;5048547;28;20099;-33
2022/09/25 05:46:23;;;;;;;3.45;2.20;;;9.50;99.90;;;;;;5048152;28;20104;-34
2022/09/25 05:48:49;;;;;;;3.80;2.08;;;9.50;99.90;;;;;;5047072;28;20552;-34
2022/09/25 05:51:14;;;;;;;2.38;2.17;;;9.50;99.90;;;;;;5048001;28;20102;-34
2022/09/25 05:53:41;;;;;;;5.30;2.50;;;9.50;99.90;;;;;;5048075;28;20153;-35
2022/09/25 05:56:06;;;;;;;3.28;2.30;;;9.40;99.90;;;;;;5047240;28;20582;-34
2022/09/25 05:58:33;;;;;;;3.38;2.15;;;9.40;99.90;;;;;;5047595;28;20100;-35
2022/09/25 06:01:02;;;;;;;2.75;1.90;;;9.40;99.90;;;;;;5047985;28;20437;-35
2022/09/25 06:03:28;;;;;;;2.38;1.85;;;9.40;99.90;;;;;;5046733;28;20433;-35
2022/09/25 06:05:55;;;;;;;1.70;1.60;;;9.50;99.90;;;;;;5048021;28;20061;-35
2022/09/25 06:08:20;;;;;;;3.97;1.70;;;9.50;99.90;;;;;;5047311;28;20037;-34
2022/09/25 06:10:52;;;;;;;2.47;1.55;;;9.50;99.90;;;;;;5047612;28;20029;-34
2022/09/25 06:13:18;;;;;;;2.38;1.80;;;9.50;99.90;;;;;;5047368;28;20025;-35
2022/09/25 06:15:43;;;;;;;5.00;2.20;;;9.50;99.90;;;;;;5047100;28;20028;-34
2022/09/25 06:18:09;;;;;;;3.63;2.40;;;9.50;99.90;;;;;;5047294;28;20048;-34
2022/09/25 06:20:35;;;;;;;4.10;2.70;;;9.50;99.90;;;;;;5047522;28;20068;-35
2022/09/25 06:23:01;;;;;;;5.97;2.60;;;9.50;99.90;;;;;;5052154;28;20086;-34
2022/09/25 06:25:35;;;;;;;5.28;1.90;;;9.50;99.90;;;;;;5051742;28;20029;-33
2022/09/25 06:28:01;;;;;;;2.88;2.25;;;9.50;99.90;;;;;;5048289;28;20412;-34
2022/09/25 06:30:33;;;;;;;2.67;2.03;;;9.50;99.90;;;;;;5045138;28;20575;-34
2022/09/25 06:33:18;;;;;;;3.10;2.05;;;9.50;99.90;;;;;;5046284;28;20036;-35
2022/09/25 06:35:46;;;;;;;4.97;2.20;;;9.50;99.90;;;;;;5046684;28;20025;-35
2022/09/25 06:38:13;;;;;;;2.30;2.10;;;9.50;99.90;;;;;;5046047;28;20124;-35
2022/09/25 06:40:39;;;;;;;2.45;1.33;;;9.60;99.90;;;;;;5046951;28;20548;-35
2022/09/25 06:43:08;;;;;;;2.63;1.80;;;9.60;99.90;;;;;;5047512;28;20049;-33
2022/09/25 06:45:34;;;;;;;2.47;1.58;;;9.60;99.90;;;;;;5046714;28;20037;-35
2022/09/25 06:48:08;;;;;;;3.55;1.58;;;9.70;99.90;;;;;;5045920;28;20047;-35
2022/09/25 06:50:42;;;;;;;2.17;1.50;;;9.80;99.90;;;;;;5046034;28;20013;-35
2022/09/25 06:53:10;;;;;;;1.30;1.20;;;9.80;99.90;;;;;;5045534;28;20379;-34
2022/09/25 06:55:36;;;;;;;1.83;1.40;;;9.90;99.90;;;;;;5046468;28;20039;-35
2022/09/25 06:58:07;;;;;;;2.33;1.48;;;10.00;99.90;;;;;;5046519;28;20029;-35
2022/09/25 07:00:33;;;;;;;1.80;1.50;;;10.00;99.90;;;;;;5046269;28;20325;-36
2022/09/25 07:05:47;;;;;;;2.95;1.48;;;10.10;99.90;;;;;;5046108;28;20098;-34
2022/09/25 07:08:17;;;;;;;1.35;1.10;;;10.20;99.90;;;;;;5046482;28;20519;-34
2022/09/25 07:10:50;;;;;;;1.67;1.27;;;10.20;99.90;;;;;;5030495;28;20036;-34
2022/09/25 07:13:24;;;;;;;2.88;1.55;;;10.30;99.90;;;;;;5045067;28;20021;-34
2022/09/25 07:15:54;;;;;;;2.45;1.27;;;10.30;99.90;;;;;;5045799;28;20107;-34
2022/09/25 07:18:23;;;;;;;1.58;1.23;;;10.40;99.90;;;;;;5045610;28;20138;-35
2022/09/25 07:20:50;;;;;;;2.20;1.38;;;10.40;99.90;;;;;;5045335;28;20040;-34
2022/09/25 07:23:17;;;;;;;2.05;1.30;;;10.50;99.90;;;;;;5045662;28;20129;-35
2022/09/25 07:25:44;;;;;;;2.50;1.52;;;10.50;99.90;;;;;;5046012;28;20025;-33
2022/09/25 07:28:13;;;;;;;1.42;1.20;;;10.60;99.90;;;;;;5044083;28;20473;-34
2022/09/25 07:30:42;;;;;;;2.05;1.30;;;10.60;99.90;;;;;;5045897;28;20473;-34
2022/09/25 07:33:08;;;;;;;2.10;1.52;;;10.70;99.90;;;;;;5044684;28;20033;-35
2022/09/25 07:35:35;;;;;;;1.83;1.30;;;10.70;99.90;;;;;;5046455;28;20028;-35
2022/09/25 07:38:00;;;;;;;1.58;1.40;;;10.70;99.90;;;;;;5046175;28;20085;-34
2022/09/25 07:40:27;;;;;;;1.50;1.30;;;10.80;99.90;;;;;;5042662;28;20037;-35
2022/09/25 07:42:58;;;;;;;2.60;1.20;;;10.90;99.90;;;;;;5045126;28;20059;-36
2022/09/25 07:45:24;;;;;;;1.45;1.00;;;10.90;99.90;;;;;;5044646;28;20100;-35
2022/09/25 07:47:49;;;;;;;1.77;1.17;;;11.00;99.90;;;;;;5044541;28;20049;-35
2022/09/25 07:50:15;;;;;;;1.73;1.25;;;11.00;99.90;;;;;;5045136;28;20057;-35
2022/09/25 07:52:40;;;;;;;4.03;1.85;;;11.10;99.90;;;;;;5045353;28;20598;-35
2022/09/25 07:55:06;;;;;;;1.98;1.20;;;11.20;99.90;;;;;;5044367;28;20132;-34
2022/09/25 07:57:33;;;;;;;2.30;1.48;;;11.20;99.90;;;;;;5044949;28;20337;-34
2022/09/25 07:59:58;;;;;;;3.03;1.55;;;11.20;99.90;;;;;;5045322;28;20574;-34
2022/09/25 08:02:24;;;;;;;3.47;1.92;;;11.30;99.90;;;;;;5044815;28;20100;-34
2022/09/25 08:04:49;;;;;;;2.30;1.80;;;11.40;99.90;;;;;;5045708;28;20384;-35
2022/09/25 08:07:15;;;;;;;3.35;1.67;;;11.40;99.90;;;;;;5045412;28;20435;-37
2022/09/25 08:09:40;;;;;;;3.00;1.60;;;11.50;99.90;;;;;;5045289;28;20445;-34
2022/09/25 08:12:10;;;;;;;2.45;1.20;;;11.60;99.90;;;;;;5046149;28;20369;-34
2022/09/25 08:14:36;;;;;;;1.85;1.30;;;11.60;99.90;;;;;;5045875;28;20337;-35
2022/09/25 08:17:01;;;;;;;1.80;1.20;;;11.70;99.90;;;;;;5045026;28;20032;-36
2022/09/25 08:19:27;;;;;;;2.83;1.17;;;11.80;99.90;;;;;;5044545;28;20385;-36
2022/09/25 08:21:52;;;;;;;1.75;1.13;;;11.90;99.90;;;;;;5026204;28;20645;-35
2022/09/25 08:24:18;;;;;;;3.10;0.90;;;12.00;99.90;;;;;;5038103;28;20033;-35
2022/09/25 08:26:45;;;;;;;1.98;0.95;;;12.00;99.90;;;;;;5045383;28;20036;-35
2022/09/25 08:29:11;;;;;;;1.05;0.70;;;12.10;99.90;;;;;;5044393;28;20036;-35
2022/09/25 08:31:36;;;;;;;1.70;1.00;;;12.20;99.90;;;;;;5045238;28;20024;-34
2022/09/25 08:34:02;;;;;;;1.63;1.15;;;12.20;99.90;;;;;;5045171;28;20025;-34
2022/09/25 08:36:28;;;;;;;3.55;1.02;;;12.30;99.90;;;;;;5044010;28;20028;-34
2022/09/25 08:38:57;;;;;;;2.50;1.02;;;12.40;99.90;;;;;;5045939;28;20024;-35
2022/09/25 08:41:41;;;;;;;1.00;0.80;;;12.50;99.90;;;;;;5044422;28;20028;-35
2022/09/25 08:44:30;;;;;;;2.40;0.82;;;12.50;99.90;;;;;;5044090;28;20017;-36
2022/09/25 08:50:17;;;;;;;3.30;0.93;;;12.70;99.90;;;;;;5045387;28;20090;-35
2022/09/25 08:52:48;;;;;;;3.22;0.85;;;12.80;99.90;;;;;;5044607;28;20028;-34
2022/09/25 08:58:23;;;;;;;4.25;1.38;;;12.90;99.90;;;;;;5024642;28;20063;-34
2022/09/25 09:00:52;;;;;;;2.85;1.00;;;12.90;99.90;;;;;;5041569;28;20557;-35
2022/09/25 09:03:19;;;;;;;1.80;1.20;;;13.00;99.90;;;;;;5025130;28;20030;-35
2022/09/25 09:05:46;;;;;;;2.28;1.00;;;13.00;99.90;;;;;;5038482;28;20029;-35
2022/09/25 09:08:17;;;;;;;2.53;1.00;;;13.00;99.90;;;;;;5044638;28;20420;-35
2022/09/25 09:10:53;;;;;;;4.28;1.15;;;13.10;99.90;;;;;;5037276;28;20028;-35
2022/09/25 09:13:33;;;;;;;2.28;0.80;;;13.10;99.90;;;;;;5043558;28;20601;-35
2022/09/25 09:16:05;;;;;;;3.50;0.80;;;13.20;99.90;;;;;;5044422;28;20571;-35
2022/09/25 09:18:37;;;;;;;2.92;0.90;;;13.20;99.90;;;;;;5043923;28;20025;-35
2022/09/25 09:21:40;;;;;;;5.47;1.40;;;13.30;99.90;;;;;;5045405;28;20055;-35
2022/09/25 09:24:14;;;;;;;1.92;0.82;;;13.30;99.90;;;;;;5024828;28;20115;-35
2022/09/25 09:27:19;;;;;;;2.65;0.77;;;13.30;99.90;;;;;;5039725;28;20043;-35
2022/09/25 09:30:06;;;;;;;4.28;1.00;;;13.30;99.90;;;;;;5024268;28;20120;-36
2022/09/25 09:33:10;;;;;;;2.95;1.23;;;13.40;99.90;;;;;;5040759;28;20750;-35
2022/09/25 09:36:01;;;;;;;3.92;0.90;;;13.50;99.90;;;;;;5044084;28;20037;-35
2022/09/25 09:38:53;;;;;;;2.53;0.80;;;13.50;99.90;;;;;;5035446;28;20198;-34
2022/09/25 09:42:02;;;;;;;1.92;0.60;;;13.60;99.90;;;;;;5042831;28;20082;-34
2022/09/25 09:44:48;;;;;;;2.78;0.68;;;13.60;99.90;;;;;;5042982;28;20404;-33
2022/09/25 09:47:49;;;;;;;2.42;0.70;;;13.70;99.90;;;;;;5043055;28;20389;-35
2022/09/25 09:50:45;;;;;;;3.72;0.80;;;13.70;99.90;;;;;;5023088;28;20037;-34
2022/09/25 09:53:34;;;;;;;2.92;0.70;;;13.80;99.90;;;;;;5043442;28;20025;-35
2022/09/25 09:56:04;;;;;;;3.40;0.57;;;13.90;99.90;;;;;;5039694;28;20029;-36
2022/09/25 09:58:47;;;;;;;2.40;0.70;;;14.00;99.90;;;;;;5041595;28;20487;-36
2022/09/25 10:01:16;;;;;;;1.90;0.70;;;14.10;99.90;;;;;;5042269;28;20427;-36
2022/09/25 10:03:44;;;;;;;2.38;0.70;;;14.10;99.90;;;;;;5044441;28;20025;-36
2022/09/25 10:06:15;;;;;;;2.45;0.70;;;14.10;99.90;;;;;;5043706;28;20344;-35
2022/09/25 10:08:41;;;;;;;2.53;0.77;;;14.20;99.90;;;;;;5043593;28;20571;-35
2022/09/25 10:11:19;;;;;;;1.83;0.70;;;14.30;99.90;;;;;;5043679;28;20518;-35
2022/09/25 10:13:47;;;;;;;0.88;0.55;;;14.40;99.90;;;;;;5042744;28;20071;-35
2022/09/25 10:16:20;;;;;;;2.22;0.80;;;14.50;99.90;;;;;;5043105;28;20211;-35
2022/09/25 10:19:06;;;;;;;3.78;1.13;;;14.60;99.90;;;;;;5043375;28;20112;-34
2022/09/25 10:22:06;;;;;;;2.47;0.73;;;14.60;99.90;;;;;;5043997;28;20029;-34
2022/09/25 10:24:52;;;;;;;1.58;0.60;;;14.80;99.90;;;;;;5035614;28;20031;-35
2022/09/25 10:27:28;;;;;;;2.30;0.98;;;14.90;99.90;;;;;;5047012;28;20146;-36
2022/09/25 10:30:09;;;;;;;2.45;0.77;;;15.00;99.90;;;;;;5036179;28;20149;-34
2022/09/25 10:33:01;;;;;;;1.10;0.60;;;15.10;99.90;;;;;;5047340;28;20131;-35
2022/09/25 10:35:42;;;;;;;1.37;0.60;;;15.20;99.90;;;;;;5039865;28;20905;-34
2022/09/25 10:38:38;;;;;;;2.70;0.73;;;15.30;99.90;;;;;;5045691;28;20264;-35
2022/09/25 10:41:16;;;;;;;1.85;0.90;;;15.40;99.90;;;;;;5047059;28;20538;-34
2022/09/25 10:43:55;;;;;;;2.53;0.60;;;15.40;99.90;;;;;;5046719;28;20028;-36
2022/09/25 10:52:42;;;;;;;4.40;0.85;;;15.20;99.90;;;;;;5027020;28;20524;-35
2022/09/25 10:55:24;;;;;;;2.30;0.70;;;15.20;99.90;;;;;;5045383;28;20032;-35
2022/09/25 10:57:57;;;;;;;1.33;0.60;;;15.30;99.90;;;;;;5046239;28;20025;-34
2022/09/25 11:00:25;;;;;;;2.60;1.02;;;15.40;99.90;;;;;;5046049;28;20400;-34
2022/09/25 11:02:55;;;;;;;1.95;0.55;;;15.50;99.90;;;;;;5046732;28;20025;-35
2022/09/25 11:05:27;;;;;;;1.30;0.60;;;15.60;99.90;;;;;;5045129;28;20447;-35
2022/09/25 11:07:56;;;;;;;2.35;0.82;;;15.60;99.90;;;;;;5047203;28;20419;-35
2022/09/25 11:10:28;;;;;;;2.22;0.50;;;15.60;99.90;;;;;;5046230;28;20423;-35
2022/09/25 11:12:55;;;;;;;1.43;0.60;;;15.60;99.90;;;;;;5046461;28;20481;-35
2022/09/25 11:15:23;;;;;;;2.13;0.40;;;15.60;99.90;;;;;;5045903;28;20028;-37
2022/09/25 11:17:51;;;;;;;1.88;0.65;;;15.50;99.90;;;;;;5046937;28;20595;-34
2022/09/25 11:20:26;;;;;;;2.15;0.60;;;15.60;99.90;;;;;;5045829;28;20025;-34
2022/09/25 11:23:04;;;;;;;2.30;0.52;;;15.70;99.90;;;;;;5047246;28;20484;-35
2022/09/25 11:25:45;;;;;;;1.98;0.80;;;15.90;99.90;;;;;;5045980;28;20480;-34
2022/09/25 11:28:29;;;;;;;1.15;0.60;;;16.00;99.90;;;;;;5026600;28;20029;-35
2022/09/25 11:31:04;;;;;;;1.90;0.50;;;16.00;99.90;;;;;;5043278;28;20443;-35
2022/09/25 11:34:09;;;;;;;1.95;0.55;;;16.10;99.90;;;;;;5044767;28;20490;-35
2022/09/25 11:36:51;;;;;;;1.92;0.40;;;16.10;99.90;;;;;;5025811;28;20045;-35
2022/09/25 11:42:39;;;;;;;1.27;0.50;;;16.20;99.90;;;;;;5045999;28;20098;-35
2022/09/25 11:45:22;;;;;;;3.85;0.70;;;16.20;99.90;;;;;;5046524;28;20324;-34
2022/09/25 11:48:11;;;;;;;1.08;0.50;;;16.20;99.90;;;;;;5045157;28;20890;-35
2022/09/25 11:51:06;;;;;;;2.15;0.50;;;16.10;99.90;;;;;;5046688;28;20125;-34
2022/09/25 11:53:40;;;;;;;1.65;0.50;;;16.10;99.90;;;;;;5045957;28;20060;-35
2022/09/25 11:56:16;;;;;;;1.75;0.52;;;16.10;99.90;;;;;;5045303;28;20043;-35
2022/09/25 11:58:52;;;;;;;0.77;0.40;;;16.10;99.90;;;;;;5046196;28;20131;-35
2022/09/25 12:01:26;;;;;;;3.00;1.08;;;16.10;99.90;;;;;;5044097;28;20504;-35
2022/09/25 12:04:34;;;;;;;2.60;0.77;;;16.00;99.90;;;;;;5045778;28;20017;-35
2022/09/25 12:07:12;;;;;;;5.10;0.70;;;15.90;99.90;;;;;;5045450;28;20114;-35
2022/09/25 12:09:46;;;;;;;4.53;0.60;;;15.80;99.90;;;;;;5036508;28;20071;-35
2022/09/25 12:12:16;;;;;;;2.83;0.60;;;15.70;99.90;;;;;;5044960;28;20021;-36
2022/09/25 12:14:53;;;;;;;1.33;0.50;;;15.60;99.90;;;;;;5025032;28;20304;-35
2022/09/25 12:17:34;;;;;;;1.83;0.68;;;15.50;99.90;;;;;;5040474;28;20064;-36
2022/09/25 12:20:25;;;;;;;0.95;0.50;;;15.40;99.90;;;;;;5026150;28;20021;-34
2022/09/25 12:22:53;;;;;;;1.55;0.52;;;15.40;99.90;;;;;;5043533;28;20035;-34
2022/09/25 12:25:25;;;;;;;1.67;0.73;;;15.30;99.90;;;;;;5045272;28;20036;-35
2022/09/25 12:28:15;;;;;;;2.80;0.70;;;15.30;99.90;;;;;;5045470;28;20040;-35
2022/09/25 12:31:04;;;;;;;1.88;0.75;;;15.30;99.90;;;;;;5045319;28;20051;-35
2022/09/25 12:33:31;;;;;;;2.22;0.80;;;15.40;99.90;;;;;;5041067;28;20052;-35
2022/09/25 12:36:07;;;;;;;2.40;0.90;;;15.40;99.90;;;;;;5045033;28;20060;-35
2022/09/25 12:38:54;;;;;;;3.13;0.70;;;15.50;99.90;;;;;;5045331;28;20055;-35
2022/09/25 12:41:32;;;;;;;2.60;0.77;;;15.50;99.90;;;;;;5044687;28;20036;-35
2022/09/25 12:44:21;;;;;;;2.33;0.60;;;15.60;99.90;;;;;;5041417;28;20055;-35
2022/09/25 12:46:56;;;;;;;1.63;0.52;;;15.70;99.90;;;;;;5045048;28;20056;-35
2022/09/25 12:49:38;;;;;;;1.58;0.50;;;15.80;99.90;;;;;;5044785;28;20111;-35
2022/09/25 12:52:13;;;;;;;2.15;0.50;;;15.90;99.90;;;;;;5045131;28;20102;-35
2022/09/25 12:54:59;;;;;;;2.22;0.50;;;16.10;99.90;;;;;;5045233;28;20499;-35
2022/09/25 12:57:38;;;;;;;1.08;0.55;;;16.20;99.90;;;;;;5043535;28;20071;-35
2022/09/25 13:00:24;;;;;;;2.50;0.40;;;16.40;99.90;;;;;;5035723;28;20052;-35
2022/09/25 13:03:21;;;;;;;6.60;0.88;;;16.40;99.90;;;;;;5044373;28;20082;-35
2022/09/25 13:06:02;;;;;;;1.05;0.50;;;16.30;99.90;;;;;;5044542;28;20102;-36
2022/09/25 13:08:49;;;;;;;1.70;0.60;;;16.20;99.90;;;;;;5043849;28;20102;-35
2022/09/25 13:11:30;;;;;;;0.93;0.50;;;16.10;99.90;;;;;;5043447;28;20107;-35
2022/09/25 13:13:58;;;;;;;2.72;0.70;;;16.00;99.90;;;;;;5044608;28;20028;-35
2022/09/25 13:16:24;;;;;;;2.72;0.85;;;16.00;99.90;;;;;;5043828;28;20036;-36
2022/09/25 13:19:11;;;;;;;0.60;0.50;;;15.90;99.90;;;;;;5043911;28;20025;-35
2022/09/25 13:21:44;;;;;;;2.25;0.50;;;16.00;99.90;;;;;;5044912;28;20529;-35
2022/09/25 13:24:15;;;;;;;2.15;0.70;;;16.10;99.90;;;;;;5044185;28;20028;-36
2022/09/25 13:26:51;;;;;;;1.52;0.50;;;16.30;99.90;;;;;;5043885;28;20033;-35
2022/09/25 13:29:29;;;;;;;1.88;0.50;;;16.50;99.90;;;;;;5043606;28;20476;-35
2022/09/25 13:32:06;;;;;;;1.92;0.60;;;16.70;99.90;;;;;;5043775;28;20036;-36
2022/09/25 13:34:40;;;;;;;1.80;0.50;;;16.90;99.90;;;;;;5044183;28;20154;-36
2022/09/25 13:37:11;;;;;;;2.03;0.47;;;17.00;99.90;;;;;;5044463;28;20033;-35
2022/09/25 13:42:37;;;;;;;3.33;0.63;;;17.10;99.40;;;;;;5045295;28;20091;-35
2022/09/25 13:45:25;;;;;;;1.90;0.60;;;17.10;99.00;;;;;;5044046;28;20168;-36
2022/09/25 13:48:03;;;;;;;1.17;0.50;;;17.10;98.60;;;;;;5023564;28;20128;-35